Map

Track Data

SID SEASON NUMBER BASIN SUBBASIN NAME ISO_TIME NATURE LAT LON WMO_WIND WMO_PRES WMO_AGENCY TRACK_TYPE DIST2LAND LANDFALL IFLAG USA_AGENCY USA_ATCF_ID USA_LAT USA_LON USA_RECORD USA_STATUS USA_WIND USA_PRES USA_SSHS USA_R34_NE USA_R34_SE USA_R34_SW USA_R34_NW USA_R50_NE USA_R50_SE USA_R50_SW USA_R50_NW USA_R64_NE USA_R64_SE USA_R64_SW USA_R64_NW USA_POCI USA_ROCI USA_RMW USA_EYE TOKYO_LAT TOKYO_LON TOKYO_GRADE TOKYO_WIND TOKYO_PRES TOKYO_R50_DIR TOKYO_R50_LONG TOKYO_R50_SHORT TOKYO_R30_DIR TOKYO_R30_LONG TOKYO_R30_SHORT TOKYO_LAND CMA_LAT CMA_LON CMA_CAT CMA_WIND CMA_PRES HKO_LAT HKO_LON HKO_CAT HKO_WIND HKO_PRES NEWDELHI_LAT NEWDELHI_LON NEWDELHI_GRADE NEWDELHI_WIND NEWDELHI_PRES NEWDELHI_CI NEWDELHI_DP NEWDELHI_POCI REUNION_LAT REUNION_LON REUNION_TYPE REUNION_WIND REUNION_PRES REUNION_TNUM REUNION_CI REUNION_RMW REUNION_R34_NE REUNION_R34_SE REUNION_R34_SW REUNION_R34_NW REUNION_R50_NE REUNION_R50_SE REUNION_R50_SW REUNION_R50_NW REUNION_R64_NE REUNION_R64_SE REUNION_R64_SW REUNION_R64_NW BOM_LAT BOM_LON BOM_TYPE BOM_WIND BOM_PRES BOM_TNUM BOM_CI BOM_RMW BOM_R34_NE BOM_R34_SE BOM_R34_SW BOM_R34_NW BOM_R50_NE BOM_R50_SE BOM_R50_SW BOM_R50_NW BOM_R64_NE BOM_R64_SE BOM_R64_SW BOM_R64_NW BOM_ROCI BOM_POCI BOM_EYE BOM_POS_METHOD BOM_PRES_METHOD NADI_LAT NADI_LON NADI_CAT NADI_WIND NADI_PRES WELLINGTON_LAT WELLINGTON_LON WELLINGTON_WIND WELLINGTON_PRES DS824_LAT DS824_LON DS824_STAGE DS824_WIND DS824_PRES TD9636_LAT TD9636_LON TD9636_STAGE TD9636_WIND TD9636_PRES TD9635_LAT TD9635_LON TD9635_WIND TD9635_PRES TD9635_ROCI NEUMANN_LAT NEUMANN_LON NEUMANN_CLASS NEUMANN_WIND NEUMANN_PRES MLC_LAT MLC_LON MLC_CLASS MLC_WIND MLC_PRES USA_GUST BOM_GUST BOM_GUST_PER REUNION_GUST REUNION_GUST_PER USA_SEAHGT USA_SEARAD_NE USA_SEARAD_SE USA_SEARAD_SW USA_SEARAD_NW STORM_SPEED STORM_DIR
2020227N12245 2020 55 EP MM FAUSTO 2020-08-13 12:00:00 NR 11.9000 -115.000 PROVISIONAL 1339 1339 O_____________ nhc_working_bt EP112020 11.9000 -115.000 DB 25 1009 -3 3 284
2020227N12245 2020 55 EP MM FAUSTO 2020-08-13 15:00:00 NR 11.9425 -115.173 PROVISIONAL 1348 1338 P_____________ EP112020 11.9425 -115.173 DB 25 1009 -3 4 284
2020227N12245 2020 55 EP MM FAUSTO 2020-08-13 18:00:00 NR 12.0000 -115.400 PROVISIONAL 1347 1346 O_____________ nhc_working_bt EP112020 12.0000 -115.400 DB 25 1009 -3 5 285
2020227N12245 2020 55 EP MM FAUSTO 2020-08-13 21:00:00 NR 12.0851 -115.707 PROVISIONAL 1350 1350 P_____________ EP112020 12.0851 -115.707 DB 25 1009 -3 6 289
2020227N12245 2020 55 EP MM FAUSTO 2020-08-14 00:00:00 NR 12.2000 -116.000 PROVISIONAL 1355 1350 O_____________ nhc_working_bt EP112020 12.2000 -116.000 DB 25 1009 -3 5 298
2020227N12245 2020 55 EP MM FAUSTO 2020-08-14 03:00:00 NR 12.3350 -116.180 PROVISIONAL 1355 1340 P_____________ EP112020 12.3350 -116.180 DB 25 1009 -3 4 316
2020227N12245 2020 55 EP MM FAUSTO 2020-08-14 06:00:00 NR 12.5000 -116.300 PROVISIONAL 1340 1326 O_____________ nhc_working_bt EP112020 12.5000 -116.300 DB 25 1009 -3 4 327
2020227N12245 2020 55 EP MM FAUSTO 2020-08-14 09:00:00 NR 12.6700 -116.400 PROVISIONAL 1326 1312 P_____________ EP112020 12.6700 -116.400 DB 25 1009 -3 4 334
2020227N12245 2020 55 EP MM FAUSTO 2020-08-14 12:00:00 NR 12.9000 -116.500 PROVISIONAL 1312 1289 O_____________ nhc_working_bt EP112020 12.9000 -116.500 DB 25 1009 -3 1010 150 6 337
2020227N12245 2020 55 EP MM FAUSTO 2020-08-14 15:00:00 NR 13.2125 -116.635 PROVISIONAL 1289 1263 P_____________ EP112020 13.2125 -116.635 DB 25 1008 -3 1009 150 8 337
2020227N12245 2020 55 EP MM FAUSTO 2020-08-14 18:00:00 DS 13.6000 -116.800 PROVISIONAL 1263 1239 O_____________ nhc_working_bt EP112020 13.6000 -116.800 LO 25 1007 -3 1008 150 70 9 337
2020227N12245 2020 55 EP MM FAUSTO 2020-08-14 21:00:00 DS 14.0425 -116.992 PROVISIONAL 1239 1206 P_____________ EP112020 14.0425 -116.992 LO 25 1007 -3 1008 160 70 10 337
2020227N12245 2020 55 EP MM FAUSTO 2020-08-15 00:00:00 DS 14.5000 -117.200 PROVISIONAL 1206 1185 O_____________ nhc_working_bt EP112020 14.5000 -117.200 LO 25 1007 -3 1008 170 70 9 336
2020227N12245 2020 55 EP MM FAUSTO 2020-08-15 03:00:00 DS 14.9000 -117.393 PROVISIONAL 1185 1165 P_____________ EP112020 14.9000 -117.393 LO 25 1006 -3 1008 170 70 9 334
2020227N12245 2020 55 EP MM FAUSTO 2020-08-15 06:00:00 DS 15.3000 -117.600 PROVISIONAL 1165 1147 O_____________ nhc_working_bt EP112020 15.3000 -117.600 LO 25 1006 -3 1008 170 70 10 332
2020227N12245 2020 55 EP MM FAUSTO 2020-08-15 09:00:00 DS 15.7350 -117.857 PROVISIONAL 1155 1131 P_____________ EP112020 15.7350 -117.857 LO 25 1006 -3 1008 170 70 10 332
2020227N12245 2020 55 EP MM FAUSTO 2020-08-15 12:00:00 DS 16.2000 -118.100 PROVISIONAL 1131 1102 O_____________ nhc_working_bt EP112020 16.2000 -118.100 LO 25 1006 -3 1008 170 70 35 10 337
2020227N12245 2020 55 EP MM FAUSTO 2020-08-15 15:00:00 DS 16.6925 -118.287 PROVISIONAL 1102 1063 P_____________ EP112020 16.6925 -118.287 LO 25 1006 -3 1009 185 65 10 344
2020227N12245 2020 55 EP MM FAUSTO 2020-08-15 18:00:00 DS 17.2000 -118.400 PROVISIONAL 1063 1018 O_____________ nhc_working_bt EP112020 17.2000 -118.400 LO 25 1006 -3 1010 200 60 35 10 353
2020227N12245 2020 55 EP MM FAUSTO 2020-08-15 21:00:00 DS 17.7000 -118.423 PROVISIONAL 1018 984 P_____________ EP112020 17.7000 -118.423 LO 27 1005 -3 1009 200 60 10 358
2020227N12245 2020 55 EP MM FAUSTO 2020-08-16 00:00:00 TS 18.1667 -118.433 PROVISIONAL 975 949 O_____________ nhc_working_bt EP112020 18.2000 -118.400 TD 30 1005 -1 1008 200 60 40 10 355
2020227N12245 2020 55 EP MM FAUSTO 2020-08-16 03:00:00 TS 18.6700 -118.510 PROVISIONAL 941 909 P_____________ EP112020 18.6848 -118.333 TD 30 1005 -1 1008 200 50 11 349
2020227N12245 2020 55 EP MM FAUSTO 2020-08-16 06:00:00 TS 19.2000 -118.640 PROVISIONAL 909 885 O_____________ nhc_working_bt EP112020 19.2000 -118.400 TD 30 1005 -1 1009 200 40 40 11 346
2020227N12245 2020 55 EP MM FAUSTO 2020-08-16 09:00:00 TS 19.7406 -118.804 PROVISIONAL 886 866 P_____________ EP112020 19.7775 -118.760 TD 32 1004 -1 1009 200 35 12 338
2020227N12245 2020 55 EP MM FAUSTO 2020-08-16 12:00:00 TS 20.2667 -119.100 PROVISIONAL 868 868 O_____________ nhc_working_bt EP112020 20.4000 -119.300 TS 35 1004 0 40 40 1009 200 30 45 13 321
2020227N12245 2020 55 EP MM FAUSTO 2020-08-16 15:00:00 TS 20.7224 -119.644 PROVISIONAL 885 885 P_____________ EP112020 21.0872 -119.855 TS 32 1004 -1 40 40 1009 200 30 15 309
2020227N12245 2020 55 EP MM FAUSTO 2020-08-16 18:00:00 TS 21.2333 -120.367 PROVISIONAL 904 885 O_____________ nhc_working_bt EP112020 21.7000 -120.500 TD 30 1004 -1 40 40 1009 200 30 45 12 45 45 19 312
2020227N12245 2020 55 EP MM FAUSTO 2020-08-16 21:00:00 TS 22.0051 -121.164 PROVISIONAL 892 882 P_____________ EP112020 22.1099 -121.228 TD 30 1004 -1 1009 200 30 21 313
2020227N12245 2020 55 EP MM FAUSTO 2020-08-17 00:00:00 TS 22.6667 -122.000 PROVISIONAL 898 898 O_____________ nhc_working_bt EP112020 22.4000 -122.000 TD 30 1005 -1 1009 200 30 40 17 300
2020227N12245 2020 55 EP MM FAUSTO 2020-08-17 03:00:00 TS 22.8600 -122.739 PROVISIONAL 940 940 P_____________ EP112020 22.6718 -122.728 TD 27 1006 -1 1010 175 60 14 280
2020227N12245 2020 55 EP MM FAUSTO 2020-08-17 06:00:00 TS 22.9000 -123.500 PROVISIONAL 1007 1007 O_____________ nhc_working_bt EP112020 22.9000 -123.500 TD 25 1008 -1 1011 150 90 35 15 277
2020227N12245 2020 55 EP MM FAUSTO 2020-08-17 09:00:00 TS 23.0548 -124.365 PROVISIONAL 1073 1073 P_____________ EP112020 23.1063 -124.369 TD 25 1008 -1 1010 150 90 17 284
2020227N12245 2020 55 EP MM FAUSTO 2020-08-17 12:00:00 TS 23.3000 -125.300 PROVISIONAL 1143 O_____________ nhc_working_bt EP112020 23.3000 -125.300 TD 25 1008 -1 1009 150 90 35 18 286

About IBTrACS Database

This database is a web-friendly format of International Best Track Archive for Climate Stewardship (IBTrACS), a global best track data archive curated by NOAA dating back to 1842.

Updated: 2021-10-19